Terminal Aerodrome Forecast
Issued by NWS Rapid City, SD

Home | Current Version | Previous Version | Text Only | Print | Product List | Glossary On
Versions: 1 2 3 4 5 6 7 8 9 10 11 12 13 14 15 16 17 18 19 20 21 22
000
FTUS43 KUNR 272334 CCA
TAFRAP
TAF COR
KRAP 272334Z 2800/2824 35012KT P6SM SCT015 BKN035
      TEMPO 2800/2802 P6SM -SHRA SCT010 BKN025
     FM280300 34008KT P6SM SCT050=

USA.gov is the U.S. government's official web portal to all federal, state and local government web resources and services.